sensor_id;sensor_type;location;lat;lon;timestamp;P1;durP1;ratioP1;P2;durP2;ratioP2
46689;SDS011;32423;45.398;10.874;2023-02-08T10:48:13;16.83;;;10.65;;
46689;SDS011;32423;45.398;10.874;2023-02-08T10:51:10;16.52;;;8.23;;
46689;SDS011;32423;45.398;10.874;2023-02-08T10:54:04;15.55;;;9.45;;
46689;SDS011;32423;45.398;10.874;2023-02-08T10:57:02;17.00;;;9.95;;
46689;SDS011;32423;45.398;10.874;2023-02-08T11:00:00;18.17;;;10.40;;
46689;SDS011;32423;45.398;10.874;2023-02-08T11:02:58;15.57;;;8.13;;
46689;SDS011;32423;45.398;10.874;2023-02-08T11:06:00;12.63;;;8.95;;
46689;SDS011;32423;45.398;10.874;2023-02-08T11:08:55;15.02;;;8.68;;
46689;SDS011;32423;45.398;10.874;2023-02-08T11:11:45;18.02;;;8.63;;
46689;SDS011;32423;45.398;10.874;2023-02-08T11:14:41;15.45;;;7.53;;
46689;SDS011;32423;45.398;10.874;2023-02-08T11:17:41;18.52;;;9.00;;
46689;SDS011;32423;45.398;10.874;2023-02-08T11:20:38;14.25;;;7.97;;
46689;SDS011;32423;45.398;10.874;2023-02-08T11:23:32;15.05;;;8.68;;
46689;SDS011;32423;45.398;10.874;2023-02-08T11:29:32;13.20;;;8.23;;
46689;SDS011;32423;45.398;10.874;2023-02-08T11:32:26;14.93;;;8.63;;
46689;SDS011;32423;45.398;10.874;2023-02-08T11:35:23;17.67;;;9.23;;
46689;SDS011;32423;45.398;10.874;2023-02-08T11:38:17;16.90;;;10.10;;
46689;SDS011;32423;45.398;10.874;2023-02-08T11:41:15;14.60;;;9.25;;
46689;SDS011;32423;45.398;10.874;2023-02-08T11:44:12;15.27;;;8.68;;
46689;SDS011;32423;45.398;10.874;2023-02-08T11:47:14;14.32;;;8.88;;
46689;SDS011;32423;45.398;10.874;2023-02-08T11:50:20;13.52;;;8.63;;
46689;SDS011;32423;45.398;10.874;2023-02-08T11:53:24;18.05;;;8.75;;
46689;SDS011;32423;45.398;10.874;2023-02-08T11:56:20;16.45;;;9.00;;
46689;SDS011;32423;45.398;10.874;2023-02-08T11:59:20;12.20;;;6.88;;
46689;SDS011;32423;45.398;10.874;2023-02-08T12:02:27;15.98;;;9.32;;
46689;SDS011;32423;45.398;10.874;2023-02-08T12:05:25;16.05;;;8.25;;
46689;SDS011;32423;45.398;10.874;2023-02-08T12:08:36;18.40;;;9.25;;
46689;SDS011;32423;45.398;10.874;2023-02-08T12:11:35;16.20;;;9.00;;
46689;SDS011;32423;45.398;10.874;2023-02-08T12:18:05;16.83;;;8.98;;
46689;SDS011;32423;45.398;10.874;2023-02-08T12:27:36;16.33;;;8.75;;
46689;SDS011;32423;45.398;10.874;2023-02-08T12:30:53;26.23;;;9.68;;
46689;SDS011;32423;45.398;10.874;2023-02-08T12:34:00;14.05;;;9.13;;
46689;SDS011;32423;45.398;10.874;2023-02-08T12:37:25;15.00;;;8.50;;
46689;SDS011;32423;45.398;10.874;2023-02-08T12:47:23;20.05;;;9.82;;
46689;SDS011;32423;45.398;10.874;2023-02-08T12:53:49;15.82;;;7.70;;
46689;SDS011;32423;45.398;10.874;2023-02-08T12:56:47;14.35;;;8.90;;
46689;SDS011;32423;45.398;10.874;2023-02-08T12:59:55;8.88;;;6.22;;
46689;SDS011;32423;45.398;10.874;2023-02-08T13:05:56;8.35;;;5.75;;
46689;SDS011;32423;45.398;10.874;2023-02-08T13:21:16;18.02;;;11.05;;
46689;SDS011;32423;45.398;10.874;2023-02-08T13:24:24;16.65;;;9.77;;
46689;SDS011;32423;45.398;10.874;2023-02-08T13:27:19;30.83;;;8.63;;
46689;SDS011;32423;45.398;10.874;2023-02-08T13:30:17;33.42;;;14.75;;
46689;SDS011;32423;45.398;10.874;2023-02-08T13:33:16;34.58;;;15.00;;
46689;SDS011;32423;45.398;10.874;2023-02-08T13:36:19;29.20;;;12.98;;
46689;SDS011;32423;45.398;10.874;2023-02-08T13:39:31;38.25;;;13.73;;
46689;SDS011;32423;45.398;10.874;2023-02-08T13:42:30;30.00;;;16.08;;
46689;SDS011;32423;45.398;10.874;2023-02-08T13:45:27;21.02;;;8.82;;
46689;SDS011;32423;45.398;10.874;2023-02-08T13:48:20;17.75;;;8.82;;
46689;SDS011;32423;45.398;10.874;2023-02-08T13:54:29;22.77;;;10.77;;
46689;SDS011;32423;45.398;10.874;2023-02-08T14:07:03;21.38;;;7.95;;
46689;SDS011;32423;45.398;10.874;2023-02-08T14:10:20;17.10;;;8.27;;
46689;SDS011;32423;45.398;10.874;2023-02-08T14:13:26;21.10;;;7.60;;
46689;SDS011;32423;45.398;10.874;2023-02-08T14:16:25;14.77;;;7.55;;
46689;SDS011;32423;45.398;10.874;2023-02-08T14:19:26;17.27;;;7.82;;
46689;SDS011;32423;45.398;10.874;2023-02-08T14:22:17;43.72;;;9.30;;
46689;SDS011;32423;45.398;10.874;2023-02-08T14:25:17;10.73;;;6.80;;
46689;SDS011;32423;45.398;10.874;2023-02-08T14:31:43;15.65;;;8.43;;
46689;SDS011;32423;45.398;10.874;2023-02-08T14:34:41;21.70;;;9.25;;
46689;SDS011;32423;45.398;10.874;2023-02-08T14:37:36;16.50;;;8.10;;
46689;SDS011;32423;45.398;10.874;2023-02-08T14:43:36;17.20;;;9.48;;
46689;SDS011;32423;45.398;10.874;2023-02-08T14:49:36;13.63;;;6.93;;
46689;SDS011;32423;45.398;10.874;2023-02-08T14:52:32;22.50;;;11.75;;
46689;SDS011;32423;45.398;10.874;2023-02-08T14:55:29;19.55;;;10.82;;
46689;SDS011;32423;45.398;10.874;2023-02-08T14:58:31;18.80;;;10.18;;
46689;SDS011;32423;45.398;10.874;2023-02-08T15:01:42;16.60;;;9.77;;
46689;SDS011;32423;45.398;10.874;2023-02-08T15:04:42;19.38;;;10.35;;
46689;SDS011;32423;45.398;10.874;2023-02-08T15:07:41;18.15;;;9.68;;
46689;SDS011;32423;45.398;10.874;2023-02-08T15:10:40;14.85;;;8.43;;
46689;SDS011;32423;45.398;10.874;2023-02-08T15:13:35;18.10;;;8.90;;
46689;SDS011;32423;45.398;10.874;2023-02-08T15:16:31;14.48;;;7.40;;
46689;SDS011;32423;45.398;10.874;2023-02-08T15:19:27;20.98;;;10.20;;
46689;SDS011;32423;45.398;10.874;2023-02-08T15:25:30;16.27;;;8.55;;
46689;SDS011;32423;45.398;10.874;2023-02-08T15:28:23;17.55;;;9.60;;
46689;SDS011;32423;45.398;10.874;2023-02-08T15:31:17;19.40;;;10.13;;
46689;SDS011;32423;45.398;10.874;2023-02-08T15:34:13;22.15;;;10.30;;
46689;SDS011;32423;45.398;10.874;2023-02-08T15:40:04;20.85;;;9.10;;
46689;SDS011;32423;45.398;10.874;2023-02-08T15:43:12;17.48;;;11.07;;
46689;SDS011;32423;45.398;10.874;2023-02-08T15:46:22;17.65;;;9.85;;
46689;SDS011;32423;45.398;10.874;2023-02-08T15:49:19;34.72;;;10.13;;
46689;SDS011;32423;45.398;10.874;2023-02-08T15:52:17;18.85;;;8.43;;
46689;SDS011;32423;45.398;10.874;2023-02-08T15:58:42;16.38;;;9.45;;
46689;SDS011;32423;45.398;10.874;2023-02-08T16:01:31;15.93;;;8.85;;
46689;SDS011;32423;45.398;10.874;2023-02-08T16:04:24;16.80;;;10.20;;
46689;SDS011;32423;45.398;10.874;2023-02-08T16:10:34;17.15;;;8.73;;
46689;SDS011;32423;45.398;10.874;2023-02-08T16:13:33;18.00;;;9.45;;
46689;SDS011;32423;45.398;10.874;2023-02-08T16:16:37;21.08;;;9.88;;
46689;SDS011;32423;45.398;10.874;2023-02-08T16:19:36;25.02;;;10.63;;
46689;SDS011;32423;45.398;10.874;2023-02-08T16:22:38;16.65;;;8.35;;
46689;SDS011;32423;45.398;10.874;2023-02-08T16:25:32;20.65;;;9.27;;
46689;SDS011;32423;45.398;10.874;2023-02-08T16:28:31;17.20;;;7.70;;
46689;SDS011;32423;45.398;10.874;2023-02-08T16:31:27;24.35;;;11.32;;
46689;SDS011;32423;45.398;10.874;2023-02-08T16:34:24;18.58;;;9.90;;
46689;SDS011;32423;45.398;10.874;2023-02-08T16:37:21;20.80;;;9.35;;
46689;SDS011;32423;45.398;10.874;2023-02-08T16:43:31;19.98;;;10.40;;
46689;SDS011;32423;45.398;10.874;2023-02-08T16:46:26;20.88;;;7.00;;
46689;SDS011;32423;45.398;10.874;2023-02-08T16:49:21;17.47;;;6.73;;
46689;SDS011;32423;45.398;10.874;2023-02-08T16:52:15;12.85;;;6.60;;
46689;SDS011;32423;45.398;10.874;2023-02-08T16:55:05;23.08;;;11.65;;
46689;SDS011;32423;45.398;10.874;2023-02-08T16:57:58;24.33;;;9.68;;
46689;SDS011;32423;45.398;10.874;2023-02-08T17:00:53;16.83;;;8.88;;
46689;SDS011;32423;45.398;10.874;2023-02-08T17:03:48;18.95;;;10.45;;
46689;SDS011;32423;45.398;10.874;2023-02-08T17:06:42;18.92;;;8.90;;
46689;SDS011;32423;45.398;10.874;2023-02-08T17:09:35;15.27;;;9.27;;
46689;SDS011;32423;45.398;10.874;2023-02-08T17:12:25;17.52;;;9.52;;
46689;SDS011;32423;45.398;10.874;2023-02-08T17:15:17;14.45;;;9.18;;
46689;SDS011;32423;45.398;10.874;2023-02-08T17:18:12;17.00;;;9.38;;
46689;SDS011;32423;45.398;10.874;2023-02-08T17:21:04;17.73;;;9.85;;
46689;SDS011;32423;45.398;10.874;2023-02-08T17:23:59;10.40;;;6.40;;
46689;SDS011;32423;45.398;10.874;2023-02-08T17:26:51;12.77;;;6.03;;
46689;SDS011;32423;45.398;10.874;2023-02-08T17:29:46;13.85;;;6.53;;
46689;SDS011;32423;45.398;10.874;2023-02-08T17:32:38;15.13;;;6.20;;
46689;SDS011;32423;45.398;10.874;2023-02-08T17:35:30;12.43;;;6.45;;
46689;SDS011;32423;45.398;10.874;2023-02-08T17:38:25;11.45;;;4.70;;
46689;SDS011;32423;45.398;10.874;2023-02-08T17:41:20;10.27;;;4.63;;
46689;SDS011;32423;45.398;10.874;2023-02-08T17:44:14;11.00;;;6.90;;
46689;SDS011;32423;45.398;10.874;2023-02-08T17:47:09;9.00;;;4.75;;
46689;SDS011;32423;45.398;10.874;2023-02-08T17:50:04;11.80;;;5.07;;
46689;SDS011;32423;45.398;10.874;2023-02-08T17:52:57;11.68;;;6.10;;
46689;SDS011;32423;45.398;10.874;2023-02-08T17:55:51;13.02;;;6.65;;
46689;SDS011;32423;45.398;10.874;2023-02-08T17:58:45;13.80;;;6.45;;
46689;SDS011;32423;45.398;10.874;2023-02-08T18:04:33;9.70;;;6.05;;
46689;SDS011;32423;45.398;10.874;2023-02-08T18:07:27;13.27;;;6.72;;
46689;SDS011;32423;45.398;10.874;2023-02-08T18:10:22;9.52;;;6.25;;
46689;SDS011;32423;45.398;10.874;2023-02-08T18:13:16;8.68;;;4.60;;
46689;SDS011;32423;45.398;10.874;2023-02-08T18:16:08;11.55;;;6.05;;
46689;SDS011;32423;45.398;10.874;2023-02-08T18:19:04;11.98;;;6.35;;
46689;SDS011;32423;45.398;10.874;2023-02-08T18:21:56;19.35;;;6.93;;
46689;SDS011;32423;45.398;10.874;2023-02-08T18:24:49;13.53;;;6.07;;
46689;SDS011;32423;45.398;10.874;2023-02-08T18:27:43;12.97;;;7.83;;
46689;SDS011;32423;45.398;10.874;2023-02-08T18:30:36;12.23;;;5.88;;
46689;SDS011;32423;45.398;10.874;2023-02-08T18:33:31;11.15;;;7.03;;
46689;SDS011;32423;45.398;10.874;2023-02-08T18:36:23;10.15;;;6.07;;
46689;SDS011;32423;45.398;10.874;2023-02-08T18:39:17;14.52;;;7.70;;
46689;SDS011;32423;45.398;10.874;2023-02-08T18:42:11;12.70;;;6.53;;
46689;SDS011;32423;45.398;10.874;2023-02-08T18:45:03;32.40;;;6.78;;
46689;SDS011;32423;45.398;10.874;2023-02-08T18:50:52;12.85;;;5.25;;
46689;SDS011;32423;45.398;10.874;2023-02-08T18:53:45;11.90;;;6.28;;
46689;SDS011;32423;45.398;10.874;2023-02-08T18:56:38;10.27;;;4.60;;
46689;SDS011;32423;45.398;10.874;2023-02-08T18:59:30;12.25;;;5.32;;
46689;SDS011;32423;45.398;10.874;2023-02-08T19:02:27;12.82;;;4.25;;
46689;SDS011;32423;45.398;10.874;2023-02-08T19:05:22;11.38;;;4.13;;
46689;SDS011;32423;45.398;10.874;2023-02-08T19:08:18;12.23;;;4.30;;
46689;SDS011;32423;45.398;10.874;2023-02-08T19:11:21;10.07;;;4.70;;
46689;SDS011;32423;45.398;10.874;2023-02-08T19:14:15;11.30;;;5.00;;
46689;SDS011;32423;45.398;10.874;2023-02-08T19:17:09;8.88;;;4.13;;
46689;SDS011;32423;45.398;10.874;2023-02-08T19:20:01;13.60;;;5.03;;
46689;SDS011;32423;45.398;10.874;2023-02-08T19:22:53;10.30;;;4.32;;
46689;SDS011;32423;45.398;10.874;2023-02-08T19:25:45;9.30;;;4.88;;
46689;SDS011;32423;45.398;10.874;2023-02-08T19:28:40;16.00;;;5.00;;
46689;SDS011;32423;45.398;10.874;2023-02-08T19:31:32;6.70;;;4.25;;
46689;SDS011;32423;45.398;10.874;2023-02-08T19:34:28;10.85;;;4.82;;
46689;SDS011;32423;45.398;10.874;2023-02-08T19:37:20;8.10;;;4.30;;
46689;SDS011;32423;45.398;10.874;2023-02-08T19:40:13;7.95;;;4.30;;
46689;SDS011;32423;45.398;10.874;2023-02-08T19:43:03;9.70;;;5.07;;
46689;SDS011;32423;45.398;10.874;2023-02-08T19:45:55;8.02;;;4.35;;
46689;SDS011;32423;45.398;10.874;2023-02-08T19:48:53;7.20;;;3.78;;
46689;SDS011;32423;45.398;10.874;2023-02-08T19:51:50;8.75;;;4.55;;
46689;SDS011;32423;45.398;10.874;2023-02-08T19:54:44;8.43;;;3.67;;
46689;SDS011;32423;45.398;10.874;2023-02-08T19:57:39;6.63;;;3.80;;
46689;SDS011;32423;45.398;10.874;2023-02-08T20:00:31;7.25;;;3.78;;
46689;SDS011;32423;45.398;10.874;2023-02-08T20:03:26;7.43;;;3.88;;
46689;SDS011;32423;45.398;10.874;2023-02-08T20:06:18;9.45;;;4.22;;
46689;SDS011;32423;45.398;10.874;2023-02-08T20:09:07;8.35;;;3.83;;
46689;SDS011;32423;45.398;10.874;2023-02-08T20:12:02;9.38;;;4.47;;
46689;SDS011;32423;45.398;10.874;2023-02-08T20:14:53;16.10;;;4.43;;
46689;SDS011;32423;45.398;10.874;2023-02-08T20:17:43;17.42;;;4.00;;
46689;SDS011;32423;45.398;10.874;2023-02-08T20:20:35;6.43;;;3.40;;
46689;SDS011;32423;45.398;10.874;2023-02-08T20:23:25;12.13;;;4.40;;
46689;SDS011;32423;45.398;10.874;2023-02-08T20:26:23;8.73;;;4.25;;
46689;SDS011;32423;45.398;10.874;2023-02-08T20:29:18;7.50;;;3.97;;
46689;SDS011;32423;45.398;10.874;2023-02-08T20:32:13;4.68;;;3.05;;
46689;SDS011;32423;45.398;10.874;2023-02-08T20:35:08;4.75;;;3.00;;
46689;SDS011;32423;45.398;10.874;2023-02-08T20:38:02;5.85;;;3.45;;
46689;SDS011;32423;45.398;10.874;2023-02-08T20:40:53;9.77;;;5.20;;
46689;SDS011;32423;45.398;10.874;2023-02-08T20:43:51;6.60;;;3.50;;
46689;SDS011;32423;45.398;10.874;2023-02-08T20:46:45;12.05;;;5.03;;
46689;SDS011;32423;45.398;10.874;2023-02-08T20:49:38;5.60;;;3.33;;
46689;SDS011;32423;45.398;10.874;2023-02-08T20:52:31;12.48;;;4.70;;
46689;SDS011;32423;45.398;10.874;2023-02-08T20:55:23;7.85;;;4.43;;
46689;SDS011;32423;45.398;10.874;2023-02-08T20:58:10;8.93;;;4.28;;
46689;SDS011;32423;45.398;10.874;2023-02-08T21:01:11;8.68;;;4.68;;
46689;SDS011;32423;45.398;10.874;2023-02-08T21:04:04;7.90;;;4.28;;
46689;SDS011;32423;45.398;10.874;2023-02-08T21:06:53;7.00;;;3.70;;
46689;SDS011;32423;45.398;10.874;2023-02-08T21:09:48;5.15;;;3.63;;
46689;SDS011;32423;45.398;10.874;2023-02-08T21:12:41;5.22;;;3.40;;
46689;SDS011;32423;45.398;10.874;2023-02-08T21:18:26;8.13;;;4.65;;
46689;SDS011;32423;45.398;10.874;2023-02-08T21:21:20;9.30;;;4.03;;
46689;SDS011;32423;45.398;10.874;2023-02-08T21:24:09;8.15;;;3.92;;
46689;SDS011;32423;45.398;10.874;2023-02-08T21:27:04;7.95;;;4.30;;
46689;SDS011;32423;45.398;10.874;2023-02-08T21:29:56;10.10;;;4.68;;
46689;SDS011;32423;45.398;10.874;2023-02-08T21:32:46;7.30;;;3.88;;
46689;SDS011;32423;45.398;10.874;2023-02-08T21:35:38;8.63;;;4.53;;
46689;SDS011;32423;45.398;10.874;2023-02-08T21:38:32;9.82;;;5.28;;
46689;SDS011;32423;45.398;10.874;2023-02-08T21:41:27;8.23;;;4.65;;
46689;SDS011;32423;45.398;10.874;2023-02-08T21:44:24;7.22;;;4.75;;
46689;SDS011;32423;45.398;10.874;2023-02-08T21:47:18;9.63;;;5.20;;
